TimeMDT,TemperatureF,Dew PointF,Humidity,Sea Level PressureIn,VisibilityMPH,Wind Direction,Wind SpeedMPH,Gust SpeedMPH,PrecipitationIn,Events,Conditions,WindDirDegrees,DateUTC
12:56 AM,33.1,25.0,72,30.02,-9999.0,North,25.3,35.7,N/A,,Unknown,360,2014-04-13 06:56:00
1:56 AM,30.0,23.0,75,30.03,-9999.0,North,31.1,38.0,N/A,,Unknown,360,2014-04-13 07:56:00
2:56 AM,28.0,21.9,78,30.07,-9999.0,North,21.9,34.5,N/A,,Unknown,350,2014-04-13 08:56:00
3:56 AM,27.0,21.0,78,30.09,-9999.0,North,26.5,33.4,N/A,,Unknown,350,2014-04-13 09:56:00
4:56 AM,26.1,19.9,78,30.13,-9999.0,North,23.0,33.4,N/A,,Unknown,360,2014-04-13 10:56:00
5:56 AM,25.0,19.0,78,30.17,-9999.0,North,-9999.0,-,N/A,,Unknown,0,2014-04-13 11:56:00
6:56 AM,25.0,19.0,78,30.20,-9999.0,North,23.0,-,N/A,,Unknown,360,2014-04-13 12:56:00
7:56 AM,25.0,17.1,72,30.24,-9999.0,North,20.7,-,N/A,,Unknown,350,2014-04-13 13:56:00
8:56 AM,24.1,16.0,71,30.25,-9999.0,North,23.0,-,N/A,,Unknown,10,2014-04-13 14:56:00
9:56 AM,25.0,15.1,66,30.25,-9999.0,North,24.2,32.2,N/A,,Unknown,360,2014-04-13 15:56:00
10:56 AM,28.0,17.1,63,30.25,-9999.0,North,25.3,31.1,N/A,,Unknown,360,2014-04-13 16:56:00
11:56 AM,30.9,17.1,57,30.24,-9999.0,North,24.2,34.5,N/A,,Unknown,350,2014-04-13 17:56:00
12:56 PM,34.0,16.0,48,30.22,-9999.0,North,29.9,40.3,N/A,,Unknown,350,2014-04-13 18:56:00
1:56 PM,36.0,15.1,43,30.23,-9999.0,North,26.5,36.8,N/A,,Unknown,350,2014-04-13 19:56:00
2:56 PM,37.9,14.0,38,30.23,-9999.0,North,27.6,34.5,N/A,,Unknown,360,2014-04-13 20:56:00
3:56 PM,37.0,12.0,36,30.23,-9999.0,North,27.6,34.5,N/A,,Unknown,10,2014-04-13 21:56:00
4:56 PM,37.9,12.0,35,30.25,-9999.0,North,21.9,34.5,N/A,,Unknown,360,2014-04-13 22:56:00
5:56 PM,36.0,12.0,37,30.26,-9999.0,North,27.6,36.8,N/A,,Unknown,10,2014-04-13 23:56:00
6:56 PM,33.1,12.0,42,30.29,-9999.0,North,21.9,-,N/A,,Unknown,10,2014-04-14 00:56:00
7:56 PM,28.9,12.0,49,30.33,-9999.0,North,-9999.0,-,N/A,,Unknown,0,2014-04-14 01:56:00
8:56 PM,25.0,12.9,60,30.37,-9999.0,North,6.9,-,N/A,,Unknown,10,2014-04-14 02:56:00
9:56 PM,25.0,12.0,58,30.37,-9999.0,North,5.8,-,N/A,,Unknown,360,2014-04-14 03:56:00
10:56 PM,23.0,12.0,63,30.36,-9999.0,NW,4.6,-,N/A,,Unknown,310,2014-04-14 04:56:00
11:56 PM,24.1,12.0,60,30.33,-9999.0,WSW,3.5,-,N/A,,Unknown,240,2014-04-14 05:56:00